Time;durP1;ratioP1;P1;durP2;ratioP2;P2;SDS_P1;SDS_P2;PMS_P1;PMS_P2;Temp;Humidity;BMP_temperature;BMP_pressure;BME280_temperature;BME280_humidity;BME280_pressure;Samples;Min_cycle;Max_cycle;Signal;HPM_P1;HPM_P2
2021/04/08 00:00:54;;;;;;;16.00;6.70;;;3.60;99.90;;;;;;5117041;28;20174;-76
2021/04/08 00:03:20;;;;;;;12.10;6.57;;;3.60;99.90;;;;;;5115191;28;20622;-76
2021/04/08 00:05:46;;;;;;;12.40;6.80;;;3.60;99.90;;;;;;5115572;28;20193;-76
2021/04/08 00:08:11;;;;;;;7.83;6.67;;;3.50;99.90;;;;;;5117028;28;20487;-76
2021/04/08 00:10:37;;;;;;;12.53;7.53;;;3.50;99.90;;;;;;5116604;28;20173;-76
2021/04/08 00:13:03;;;;;;;8.47;6.00;;;3.50;99.90;;;;;;5116402;28;20169;-76
2021/04/08 00:15:28;;;;;;;10.00;7.20;;;3.50;99.90;;;;;;5115305;28;20224;-76
2021/04/08 00:17:54;;;;;;;10.67;6.30;;;3.40;99.90;;;;;;5116755;28;20173;-76
2021/04/08 00:20:21;;;;;;;10.77;7.33;;;3.40;99.90;;;;;;5116608;28;20169;-76
2021/04/08 00:22:47;;;;;;;14.63;6.30;;;3.30;99.90;;;;;;5114898;28;20169;-76
2021/04/08 00:25:14;;;;;;;8.70;6.63;;;3.30;99.90;;;;;;5115112;28;20181;-76
2021/04/08 00:27:40;;;;;;;17.50;6.90;;;3.30;99.90;;;;;;5115233;28;20201;-77
2021/04/08 00:30:07;;;;;;;7.10;6.10;;;3.30;99.90;;;;;;5129631;27;20174;-77
2021/04/08 00:32:33;;;;;;;11.50;6.07;;;3.30;99.90;;;;;;5116286;28;20185;-76
2021/04/08 00:34:59;;;;;;;11.47;6.60;;;3.30;99.90;;;;;;5115905;28;20201;-76
2021/04/08 00:37:25;;;;;;;13.40;7.00;;;3.20;99.90;;;;;;5114984;28;20193;-76
2021/04/08 00:39:50;;;;;;;11.43;7.23;;;3.20;99.90;;;;;;5115630;28;20165;-76
2021/04/08 00:42:16;;;;;;;8.37;7.57;;;3.20;99.90;;;;;;5114485;28;20169;-76
2021/04/08 00:44:42;;;;;;;9.77;7.67;;;3.20;99.90;;;;;;5115965;28;20189;-76
2021/04/08 00:47:07;;;;;;;10.30;7.27;;;3.30;99.90;;;;;;5116238;28;20176;-76
2021/04/08 00:49:33;;;;;;;10.40;7.77;;;3.40;99.90;;;;;;5097971;28;20205;-76
2021/04/08 00:51:58;;;;;;;13.40;7.67;;;3.50;99.90;;;;;;5116023;28;20192;-76
2021/04/08 00:54:24;;;;;;;13.10;7.83;;;3.50;99.90;;;;;;5114164;28;20206;-76
2021/04/08 00:56:50;;;;;;;9.97;7.53;;;3.60;99.90;;;;;;5114489;28;20188;-76
2021/04/08 00:59:17;;;;;;;11.63;8.07;;;3.80;99.90;;;;;;5115687;28;20191;-76
2021/04/08 01:01:43;;;;;;;8.73;7.37;;;3.90;99.90;;;;;;5115868;28;20192;-76
2021/04/08 01:04:09;;;;;;;12.00;6.70;;;4.00;99.90;;;;;;5115058;28;20258;-76
2021/04/08 01:06:35;;;;;;;8.53;6.27;;;4.10;99.90;;;;;;5114599;28;20577;-76
2021/04/08 01:09:02;;;;;;;10.83;6.60;;;4.10;99.90;;;;;;5097455;28;20173;-75
2021/04/08 01:11:27;;;;;;;15.67;6.50;;;4.00;99.90;;;;;;5113893;28;20534;-76
2021/04/08 01:13:54;;;;;;;15.80;6.70;;;4.10;99.90;;;;;;5115014;28;20205;-77
2021/04/08 01:16:30;;;;;;;14.37;6.97;;;4.20;99.90;;;;;;5113525;28;20182;-77
2021/04/08 01:19:33;;;;;;;7.57;6.20;;;4.40;99.90;;;;;;5114332;28;20162;-77
2021/04/08 01:22:37;;;;;;;9.23;6.13;;;4.50;99.90;;;;;;5114318;28;20210;-76
2021/04/08 01:25:24;;;;;;;7.77;6.07;;;4.60;99.90;;;;;;5111311;28;20263;-76
2021/04/08 01:27:55;;;;;;;13.87;6.40;;;4.70;99.90;;;;;;5115528;28;20601;-76
2021/04/08 01:30:30;;;;;;;15.97;6.10;;;4.80;99.90;;;;;;5114116;28;20170;-76
2021/04/08 01:32:59;;;;;;;10.13;5.70;;;4.70;99.90;;;;;;5111984;28;20188;-76
2021/04/08 01:35:28;;;;;;;9.30;5.73;;;4.70;99.90;;;;;;5114454;28;20201;-76
2021/04/08 01:38:20;;;;;;;10.87;6.67;;;4.80;99.90;;;;;;5114626;28;20165;-76
2021/04/08 01:40:47;;;;;;;15.03;6.67;;;4.80;99.90;;;;;;5107945;28;20183;-76
2021/04/08 01:43:17;;;;;;;11.03;5.87;;;4.90;99.90;;;;;;5113507;28;20173;-76
2021/04/08 01:45:44;;;;;;;13.00;6.37;;;4.90;99.90;;;;;;5113140;28;20192;-76
2021/04/08 01:48:11;;;;;;;16.37;6.30;;;4.80;99.90;;;;;;5113703;28;20180;-77
2021/04/08 01:50:36;;;;;;;11.73;6.87;;;4.80;99.90;;;;;;5113225;28;20260;-76
2021/04/08 01:53:05;;;;;;;12.07;6.20;;;4.80;99.90;;;;;;5113094;28;20264;-76
2021/04/08 01:55:33;;;;;;;10.97;5.70;;;4.90;99.90;;;;;;5105616;28;20661;-76
2021/04/08 01:58:00;;;;;;;10.63;5.57;;;4.90;99.90;;;;;;5113506;28;20165;-76
2021/04/08 02:00:25;;;;;;;14.83;6.33;;;4.90;99.90;;;;;;5114406;28;20169;-76
2021/04/08 02:02:55;;;;;;;15.40;6.00;;;4.90;99.90;;;;;;5093074;28;20178;-76
2021/04/08 02:05:24;;;;;;;15.17;6.03;;;5.00;99.90;;;;;;5112900;28;20601;-77
2021/04/08 02:07:53;;;;;;;12.00;6.27;;;5.10;99.90;;;;;;5113378;28;20621;-76
2021/04/08 02:10:19;;;;;;;14.17;6.57;;;5.10;99.90;;;;;;5114437;28;20215;-76
2021/04/08 02:12:46;;;;;;;11.83;7.50;;;5.10;99.90;;;;;;5095924;28;20170;-77
2021/04/08 02:15:14;;;;;;;10.30;6.43;;;5.00;99.90;;;;;;5103736;28;20216;-76
2021/04/08 02:17:42;;;;;;;13.40;6.53;;;5.00;99.90;;;;;;5114394;27;20530;-76
2021/04/08 02:20:13;;;;;;;9.30;6.67;;;5.00;99.90;;;;;;5113044;28;20166;-76
2021/04/08 02:22:44;;;;;;;10.10;6.83;;;5.00;99.90;;;;;;5112763;28;20158;-76
2021/04/08 02:25:12;;;;;;;9.13;6.33;;;4.90;99.90;;;;;;5114452;28;20308;-77
2021/04/08 02:27:42;;;;;;;9.27;6.13;;;4.80;99.90;;;;;;5114391;28;20173;-76
2021/04/08 02:30:11;;;;;;;8.90;6.17;;;4.90;99.90;;;;;;5114298;28;20173;-76
2021/04/08 02:32:38;;;;;;;12.40;6.17;;;5.00;99.90;;;;;;5113433;28;20191;-76
2021/04/08 02:35:09;;;;;;;11.17;6.20;;;5.00;99.90;;;;;;5111590;28;20197;-76
2021/04/08 02:37:35;;;;;;;14.83;5.90;;;5.00;99.90;;;;;;5114196;28;20161;-76
2021/04/08 02:40:08;;;;;;;12.20;6.00;;;5.00;99.90;;;;;;5113435;28;20173;-75
2021/04/08 02:42:34;;;;;;;12.97;6.50;;;5.10;99.90;;;;;;5112805;28;20179;-76
2021/04/08 02:45:01;;;;;;;14.10;6.50;;;5.10;99.90;;;;;;5112179;28;20169;-76
2021/04/08 02:47:26;;;;;;;10.80;6.70;;;5.10;99.90;;;;;;5113915;28;20165;-76
2021/04/08 02:49:52;;;;;;;12.43;5.93;;;5.10;99.90;;;;;;5112788;28;20227;-76
2021/04/08 02:52:24;;;;;;;9.63;6.90;;;5.10;99.90;;;;;;5112735;28;20540;-76
2021/04/08 02:55:22;;;;;;;8.23;5.80;;;5.10;99.90;;;;;;5113370;28;20236;-76
2021/04/08 02:57:55;;;;;;;9.77;6.90;;;5.10;99.90;;;;;;5093953;28;20265;-77
2021/04/08 03:00:28;;;;;;;10.60;5.77;;;5.10;99.90;;;;;;5096150;28;20158;-76
2021/04/08 03:02:57;;;;;;;11.23;6.80;;;5.20;99.90;;;;;;5116231;28;20603;-76
2021/04/08 03:05:24;;;;;;;12.73;7.03;;;5.20;99.90;;;;;;5116964;28;20669;-77
2021/04/08 03:07:52;;;;;;;11.40;6.53;;;5.20;99.90;;;;;;5116681;28;20269;-75
2021/04/08 03:10:18;;;;;;;9.90;5.73;;;5.10;99.90;;;;;;5118413;28;20192;-76
2021/04/08 03:12:49;;;;;;;11.97;5.43;;;5.10;99.90;;;;;;5116713;28;20184;-76
2021/04/08 03:15:19;;;;;;;15.53;6.90;;;5.10;99.90;;;;;;5117330;28;20193;-76
2021/04/08 03:17:47;;;;;;;16.23;5.90;;;5.10;99.90;;;;;;5117649;28;20170;-76
2021/04/08 03:20:14;;;;;;;8.17;5.87;;;5.10;99.90;;;;;;5117578;28;20169;-76
2021/04/08 03:22:40;;;;;;;11.20;6.13;;;5.10;99.90;;;;;;5099434;28;20174;-76
2021/04/08 03:25:09;;;;;;;10.60;5.67;;;5.10;99.90;;;;;;5117753;28;20605;-76
2021/04/08 03:27:36;;;;;;;11.37;6.60;;;5.10;99.90;;;;;;5116252;28;20169;-76
2021/04/08 03:30:06;;;;;;;11.03;6.07;;;5.10;99.90;;;;;;5116271;28;20162;-76
2021/04/08 03:32:32;;;;;;;14.10;6.80;;;5.20;99.90;;;;;;5115856;28;20208;-76
2021/04/08 03:34:58;;;;;;;6.47;5.27;;;5.20;99.90;;;;;;5117314;28;20293;-76
2021/04/08 03:37:24;;;;;;;8.37;6.40;;;5.20;99.90;;;;;;5115944;28;20633;-75
2021/04/08 03:39:51;;;;;;;11.10;5.50;;;5.10;99.90;;;;;;5116175;28;20204;-76
2021/04/08 03:42:17;;;;;;;11.57;6.77;;;5.10;99.90;;;;;;5115815;28;20629;-76
2021/04/08 03:44:43;;;;;;;11.90;6.47;;;5.00;99.90;;;;;;5116414;28;20216;-76
2021/04/08 03:47:10;;;;;;;9.10;6.00;;;4.90;99.90;;;;;;5117099;28;20641;-76
2021/04/08 03:49:36;;;;;;;8.97;5.90;;;5.00;99.90;;;;;;5116374;28;20208;-76
2021/04/08 03:52:04;;;;;;;10.70;6.57;;;5.00;99.90;;;;;;5117144;28;20201;-76
2021/04/08 03:54:31;;;;;;;14.47;7.07;;;5.00;99.90;;;;;;5099350;28;20288;-76
2021/04/08 03:56:59;;;;;;;9.87;6.23;;;5.00;99.90;;;;;;5115522;28;20178;-76
2021/04/08 03:59:25;;;;;;;10.90;6.10;;;5.00;99.90;;;;;;5117212;28;20181;-77
2021/04/08 04:01:53;;;;;;;14.10;5.83;;;5.00;99.90;;;;;;5115472;28;20268;-76
2021/04/08 04:04:19;;;;;;;13.50;6.57;;;4.90;99.90;;;;;;5117070;28;20209;-76
2021/04/08 04:06:50;;;;;;;10.37;6.30;;;4.80;99.90;;;;;;5116351;28;20173;-76
2021/04/08 04:09:16;;;;;;;10.60;6.67;;;4.80;99.90;;;;;;5115685;28;20165;-76
2021/04/08 04:11:48;;;;;;;7.70;6.07;;;4.70;99.90;;;;;;5115394;28;20173;-77
2021/04/08 04:14:21;;;;;;;11.17;6.40;;;4.70;99.90;;;;;;5115389;28;20680;-77
2021/04/08 04:16:50;;;;;;;9.67;6.73;;;4.80;99.90;;;;;;5116527;28;20196;-76
2021/04/08 04:19:15;;;;;;;7.70;5.97;;;4.80;99.90;;;;;;5116749;28;20157;-76
2021/04/08 04:21:41;;;;;;;16.27;5.90;;;4.90;99.90;;;;;;5116925;28;20161;-76
2021/04/08 04:24:08;;;;;;;8.17;6.73;;;4.90;99.90;;;;;;5116383;28;20276;-76
2021/04/08 04:26:34;;;;;;;14.23;6.17;;;4.80;99.90;;;;;;5116305;28;20680;-76
2021/04/08 04:29:00;;;;;;;9.60;6.13;;;4.70;99.90;;;;;;5115479;28;20217;-76
2021/04/08 04:31:26;;;;;;;11.50;6.33;;;4.80;99.90;;;;;;5115290;28;20264;-76
2021/04/08 04:33:51;;;;;;;12.47;7.07;;;4.80;99.90;;;;;;5116363;28;20651;-76
2021/04/08 04:36:20;;;;;;;9.50;6.03;;;4.90;99.90;;;;;;5114704;28;20276;-76
2021/04/08 04:38:46;;;;;;;9.57;6.20;;;5.00;99.90;;;;;;5115282;28;20178;-76
2021/04/08 04:41:12;;;;;;;8.50;6.03;;;5.00;99.90;;;;;;5116438;28;20551;-76
2021/04/08 04:43:38;;;;;;;17.27;6.60;;;5.00;99.90;;;;;;5114987;28;20161;-75
2021/04/08 04:46:04;;;;;;;9.60;6.30;;;5.00;99.90;;;;;;5114707;28;20208;-76
2021/04/08 04:48:30;;;;;;;10.70;5.93;;;5.00;99.90;;;;;;5115810;28;20626;-76
2021/04/08 04:50:56;;;;;;;8.77;5.90;;;4.90;99.90;;;;;;5115984;28;20177;-76
2021/04/08 04:53:21;;;;;;;10.23;6.83;;;4.90;99.90;;;;;;5115664;28;20497;-76
2021/04/08 04:55:47;;;;;;;8.60;6.00;;;4.70;99.90;;;;;;5114148;28;20213;-76
2021/04/08 04:58:13;;;;;;;13.23;6.80;;;4.70;99.90;;;;;;5114361;28;20185;-76
2021/04/08 05:00:38;;;;;;;9.27;5.93;;;4.60;99.90;;;;;;5116113;28;20212;-76
2021/04/08 05:03:05;;;;;;;12.00;6.87;;;4.60;99.90;;;;;;5116004;28;20200;-77
2021/04/08 05:05:30;;;;;;;7.27;6.60;;;4.60;99.90;;;;;;5114048;28;20180;-76
2021/04/08 05:07:56;;;;;;;14.47;6.20;;;4.60;99.90;;;;;;5114049;28;20185;-76
2021/04/08 05:10:22;;;;;;;14.20;7.00;;;4.60;99.90;;;;;;5115445;28;20170;-76
2021/04/08 05:12:47;;;;;;;9.07;6.73;;;4.70;99.90;;;;;;5115740;28;20157;-76
2021/04/08 05:15:13;;;;;;;10.40;6.30;;;4.80;99.90;;;;;;5115044;28;20546;-76
2021/04/08 05:17:39;;;;;;;8.00;6.07;;;4.80;99.90;;;;;;5115649;28;20299;-76
2021/04/08 05:20:05;;;;;;;8.97;6.53;;;4.90;99.90;;;;;;5115539;28;20560;-77
2021/04/08 05:22:31;;;;;;;14.13;7.70;;;4.80;99.90;;;;;;5115548;28;20169;-76
2021/04/08 05:24:57;;;;;;;17.73;7.20;;;4.80;99.90;;;;;;5113576;28;20525;-76
2021/04/08 05:27:22;;;;;;;15.87;6.93;;;4.90;99.90;;;;;;5115074;28;20644;-76
2021/04/08 05:29:48;;;;;;;15.50;6.83;;;5.00;99.90;;;;;;5114255;28;20169;-76
2021/04/08 05:32:14;;;;;;;15.67;6.83;;;4.90;99.90;;;;;;5115033;28;20189;-76
2021/04/08 05:34:40;;;;;;;10.60;6.87;;;4.90;99.90;;;;;;5113533;28;20251;-76
2021/04/08 05:37:05;;;;;;;9.93;7.57;;;4.90;99.90;;;;;;5113508;28;20565;-77
2021/04/08 05:39:31;;;;;;;11.63;6.83;;;4.90;99.90;;;;;;5113741;28;20170;-76
2021/04/08 05:41:57;;;;;;;13.87;7.27;;;4.90;99.90;;;;;;5115112;28;20173;-76
2021/04/08 05:44:23;;;;;;;10.47;6.83;;;5.00;99.90;;;;;;5113238;28;20203;-76
2021/04/08 05:46:48;;;;;;;8.70;6.53;;;5.10;99.90;;;;;;5113449;28;20251;-76
2021/04/08 05:49:14;;;;;;;20.47;7.50;;;5.20;99.90;;;;;;5113378;28;20260;-75
2021/04/08 05:51:39;;;;;;;9.33;7.10;;;5.30;99.90;;;;;;5114828;28;20165;-76
2021/04/08 05:54:07;;;;;;;18.10;7.20;;;5.40;99.90;;;;;;5113133;28;20717;-76
2021/04/08 05:56:33;;;;;;;13.17;7.53;;;5.40;99.90;;;;;;5113328;28;20640;-76
2021/04/08 05:58:59;;;;;;;9.90;6.60;;;5.50;99.90;;;;;;5113555;28;20165;-76
2021/04/08 06:01:25;;;;;;;11.07;7.10;;;5.50;99.90;;;;;;5114478;28;20170;-76
2021/04/08 06:03:52;;;;;;;13.00;6.40;;;5.50;99.90;;;;;;5113419;28;20169;-76
2021/04/08 06:06:18;;;;;;;15.87;7.60;;;5.70;99.90;;;;;;5112916;28;20211;-76
2021/04/08 06:08:43;;;;;;;10.83;7.17;;;5.90;99.90;;;;;;5096401;28;20173;-76
2021/04/08 06:11:09;;;;;;;11.07;6.97;;;6.10;99.90;;;;;;5113445;28;20173;-76
2021/04/08 06:13:35;;;;;;;11.83;7.40;;;6.30;99.90;;;;;;5114362;28;20494;-76
2021/04/08 06:16:01;;;;;;;10.70;6.70;;;6.40;99.90;;;;;;5112601;28;20209;-75
2021/04/08 06:18:26;;;;;;;18.80;7.20;;;6.50;99.90;;;;;;5114523;28;20218;-76
2021/04/08 06:20:52;;;;;;;16.23;6.43;;;6.70;99.90;;;;;;5114292;28;20592;-76
2021/04/08 06:23:18;;;;;;;12.33;7.57;;;6.80;99.90;;;;;;5113394;28;20180;-76
2021/04/08 06:25:44;;;;;;;13.63;6.70;;;6.90;99.90;;;;;;5113838;28;20185;-77
2021/04/08 06:28:10;;;;;;;16.60;6.47;;;7.00;99.90;;;;;;5096202;28;20206;-76
2021/04/08 06:30:37;;;;;;;18.77;6.57;;;7.00;99.90;;;;;;5114319;28;20192;-76
2021/04/08 06:33:02;;;;;;;9.83;6.37;;;7.20;99.90;;;;;;5111334;28;20246;-75
2021/04/08 06:35:28;;;;;;;20.13;6.60;;;7.30;99.90;;;;;;5113563;28;20530;-76
2021/04/08 06:37:54;;;;;;;13.50;7.10;;;7.30;99.90;;;;;;5112975;28;20177;-76
2021/04/08 06:40:21;;;;;;;13.43;7.33;;;7.30;99.90;;;;;;5112367;28;20168;-76
2021/04/08 06:42:48;;;;;;;16.67;6.80;;;7.40;99.90;;;;;;5113411;28;20231;-76
2021/04/08 06:45:15;;;;;;;22.23;7.00;;;7.50;99.90;;;;;;5113637;28;20641;-76
2021/04/08 06:47:41;;;;;;;7.93;6.10;;;7.50;99.90;;;;;;5112049;28;20176;-76
2021/04/08 06:50:08;;;;;;;10.77;6.17;;;7.50;99.90;;;;;;5112200;28;20170;-76
2021/04/08 06:52:34;;;;;;;18.17;6.33;;;7.40;99.90;;;;;;5113437;28;20165;-76
2021/04/08 06:55:00;;;;;;;16.20;6.80;;;7.40;99.90;;;;;;5113462;28;20189;-76
2021/04/08 06:57:27;;;;;;;15.30;6.30;;;7.40;99.90;;;;;;5113891;28;20162;-76
2021/04/08 06:59:53;;;;;;;15.93;6.70;;;7.50;99.90;;;;;;5113572;28;20254;-76
2021/04/08 07:02:21;;;;;;;23.87;7.13;;;7.50;99.90;;;;;;5112598;28;20210;-76
2021/04/08 07:04:47;;;;;;;17.90;6.20;;;7.60;99.90;;;;;;5113694;28;20170;-76
2021/04/08 07:07:16;;;;;;;11.03;6.87;;;7.70;99.90;;;;;;5113579;28;20173;-76
2021/04/08 07:09:43;;;;;;;15.27;6.70;;;7.70;99.90;;;;;;5112017;28;20554;-76
2021/04/08 07:12:10;;;;;;;21.00;6.60;;;7.70;99.90;;;;;;5112835;28;20165;-76
2021/04/08 07:14:37;;;;;;;19.00;6.40;;;7.70;99.90;;;;;;5111751;28;20194;-76
2021/04/08 07:17:07;;;;;;;13.95;7.45;;;7.80;99.90;;;;;;5113274;28;20157;-76
2021/04/08 07:19:33;;;;;;;14.55;6.82;;;7.90;99.90;;;;;;5112264;28;20161;-76
2021/04/08 07:22:00;;;;;;;10.55;5.78;;;8.00;99.90;;;;;;5112273;28;20165;-76
2021/04/08 07:24:26;;;;;;;12.70;6.97;;;8.30;99.90;;;;;;5113449;28;20230;-76
2021/04/08 07:26:56;;;;;;;10.40;6.30;;;8.40;99.90;;;;;;5091866;28;20174;-76
2021/04/08 07:29:23;;;;;;;9.70;5.72;;;8.60;99.90;;;;;;5097381;28;20173;-76
2021/04/08 07:31:50;;;;;;;28.08;6.63;;;8.80;99.90;;;;;;5113210;28;20295;-76
2021/04/08 07:34:45;;;;;;;19.47;6.30;;;9.10;99.90;;;;;;5113282;28;20217;-76
2021/04/08 07:37:11;;;;;;;24.13;6.47;;;9.30;99.90;;;;;;5113359;28;20173;-76
2021/04/08 07:39:46;;;;;;;14.68;6.63;;;9.50;99.90;;;;;;5112090;28;20161;-76
2021/04/08 07:42:14;;;;;;;24.60;7.47;;;9.60;99.90;;;;;;5113185;28;20244;-76
2021/04/08 07:44:43;;;;;;;20.48;7.00;;;9.70;99.90;;;;;;5111431;28;20177;-76
2021/04/08 07:47:37;;;;;;;9.02;5.72;;;9.70;99.90;;;;;;5113125;28;20257;-76
2021/04/08 07:50:05;;;;;;;15.50;5.60;;;9.70;99.90;;;;;;5114517;28;20197;-75
2021/04/08 07:52:35;;;;;;;18.63;6.25;;;9.60;99.90;;;;;;5116827;28;20170;-75
2021/04/08 07:55:10;;;;;;;17.25;5.60;;;9.50;99.90;;;;;;5116508;28;20197;-76
2021/04/08 07:58:02;;;;;;;13.20;5.50;;;9.80;99.90;;;;;;5116805;28;20513;-76
2021/04/08 08:00:31;;;;;;;20.48;6.22;;;9.90;99.90;;;;;;5114922;28;20621;-77
2021/04/08 08:03:00;;;;;;;9.88;5.60;;;10.10;99.90;;;;;;5115713;28;20267;-76
2021/04/08 08:05:31;;;;;;;30.77;6.32;;;10.00;99.90;;;;;;5115293;28;20176;-76
2021/04/08 08:08:13;;;;;;;27.35;6.40;;;10.00;99.90;;;;;;5115775;28;20520;-76
2021/04/08 08:10:41;;;;;;;17.25;5.90;;;10.20;99.90;;;;;;5115211;28;20169;-76
2021/04/08 08:13:23;;;;;;;15.02;5.28;;;10.40;99.90;;;;;;5115508;28;20165;-76
2021/04/08 08:15:49;;;;;;;16.63;6.30;;;10.60;99.90;;;;;;5114695;28;20215;-76
2021/04/08 08:18:32;;;;;;;9.95;5.47;;;10.60;99.90;;;;;;5115626;28;20173;-76
2021/04/08 08:21:19;;;;;;;14.20;5.78;;;10.60;99.90;;;;;;5115003;28;20245;-76
2021/04/08 08:23:49;;;;;;;15.45;5.38;;;10.60;99.90;;;;;;5115376;28;20208;-76
2021/04/08 08:26:34;;;;;;;19.42;6.22;;;10.60;99.90;;;;;;5116613;28;20166;-76
2021/04/08 08:29:23;;;;;;;23.90;5.97;;;10.50;99.90;;;;;;5116683;28;20203;-77
2021/04/08 08:31:59;;;;;;;21.92;5.40;;;10.70;99.90;;;;;;5116107;28;20204;-76
2021/04/08 08:34:28;;;;;;;10.98;5.60;;;10.90;99.90;;;;;;5115105;28;20196;-76
2021/04/08 08:37:08;;;;;;;16.48;5.53;;;11.30;99.90;;;;;;5116175;28;20166;-76
2021/04/08 08:39:39;;;;;;;12.82;5.65;;;11.50;99.90;;;;;;5116310;28;20149;-76
2021/04/08 08:42:10;;;;;;;14.50;5.65;;;11.60;99.90;;;;;;5116083;28;20613;-76
2021/04/08 08:44:37;;;;;;;10.07;5.90;;;11.60;99.90;;;;;;5115056;28;20648;-76
2021/04/08 08:47:32;;;;;;;11.73;5.10;;;11.70;99.90;;;;;;5114978;28;20633;-76
2021/04/08 08:50:04;;;;;;;9.77;5.32;;;11.90;99.90;;;;;;5116268;28;20275;-76
2021/04/08 08:52:36;;;;;;;10.65;5.53;;;11.80;99.90;;;;;;5115900;28;20162;-76
2021/04/08 08:55:10;;;;;;;10.68;5.32;;;11.90;99.90;;;;;;5114905;28;20217;-76
2021/04/08 08:57:38;;;;;;;10.05;6.03;;;12.00;99.90;;;;;;5116245;28;20180;-76
2021/04/08 09:00:04;;;;;;;12.93;5.68;;;12.10;99.90;;;;;;5115446;28;20252;-76
2021/04/08 09:02:30;;;;;;;19.98;5.80;;;12.20;99.90;;;;;;5115700;28;20751;-77
2021/04/08 09:04:59;;;;;;;13.13;6.00;;;12.20;99.90;;;;;;5115454;28;20201;-76
2021/04/08 09:07:27;;;;;;;8.65;5.10;;;12.20;99.90;;;;;;5114610;28;20170;-76
2021/04/08 09:09:56;;;;;;;7.43;5.07;;;12.40;99.90;;;;;;5095430;28;20600;-76
2021/04/08 09:12:24;;;;;;;10.40;4.85;;;12.60;99.90;;;;;;5094113;28;20615;-76
2021/04/08 09:14:49;;;;;;;8.60;5.00;;;12.70;99.90;;;;;;5095303;28;20221;-76
2021/04/08 09:17:37;;;;;;;7.85;5.53;;;12.60;99.90;;;;;;5095519;28;20202;-76
2021/04/08 09:20:07;;;;;;;10.55;5.57;;;12.70;99.90;;;;;;5114494;28;20697;-77
2021/04/08 09:22:33;;;;;;;6.93;4.45;;;12.90;99.90;;;;;;5115308;28;20193;-76
2021/04/08 09:25:00;;;;;;;8.10;5.05;;;13.60;99.90;;;;;;5115523;28;20200;-76
2021/04/08 09:27:25;;;;;;;11.00;5.15;;;13.80;99.90;;;;;;5115656;28;20670;-77
2021/04/08 09:29:56;;;;;;;8.98;6.22;;;14.00;99.90;;;;;;5114019;28;20181;-76
2021/04/08 09:32:32;;;;;;;9.00;5.35;;;14.10;99.90;;;;;;5115280;28;20221;-76
2021/04/08 09:35:03;;;;;;;9.60;5.20;;;14.80;99.90;;;;;;5114963;28;20721;-76
2021/04/08 09:37:44;;;;;;;6.13;5.28;;;15.50;99.90;;;;;;5113526;28;20205;-74
2021/04/08 09:40:43;;;;;;;9.43;5.10;;;16.50;99.80;;;;;;5113715;28;20197;-73
2021/04/08 09:43:10;;;;;;;11.05;5.18;;;16.80;99.90;;;;;;5106334;28;20186;-74
2021/04/08 09:45:42;;;;;;;19.75;4.85;;;16.50;96.50;;;;;;5115105;28;20629;-73
2021/04/08 09:48:12;;;;;;;6.25;4.65;;;16.00;96.50;;;;;;5113301;28;20694;-74
2021/04/08 09:50:47;;;;;;;13.65;4.18;;;16.00;95.80;;;;;;5114846;28;20517;-74
2021/04/08 09:53:21;;;;;;;7.68;4.70;;;16.20;94.00;;;;;;5113397;28;20165;-74
2021/04/08 09:56:01;;;;;;;9.13;3.88;;;16.30;92.70;;;;;;5114330;28;20586;-73
2021/04/08 09:58:32;;;;;;;11.75;4.50;;;17.50;92.90;;;;;;5114725;28;20617;-75
2021/04/08 10:01:01;;;;;;;8.18;4.22;;;18.10;92.00;;;;;;5114560;28;20210;-76
2021/04/08 10:03:34;;;;;;;5.93;3.47;;;19.90;89.00;;;;;;5113217;28;20196;-77
2021/04/08 10:06:12;;;;;;;4.50;3.67;;;21.50;77.90;;;;;;5113687;28;20169;-76
2021/04/08 10:08:38;;;;;;;7.00;3.70;;;21.80;76.10;;;;;;5114438;28;20632;-76
2021/04/08 10:11:03;;;;;;;4.75;3.67;;;19.50;72.90;;;;;;5112836;28;20173;-76
2021/04/08 10:13:31;;;;;;;7.88;3.80;;;17.70;75.20;;;;;;5112936;28;20220;-74
2021/04/08 10:15:59;;;;;;;5.82;4.32;;;16.40;80.60;;;;;;5114752;28;20196;-73
2021/04/08 10:18:27;;;;;;;6.10;4.43;;;15.20;84.80;;;;;;5112719;28;20208;-74
2021/04/08 10:20:59;;;;;;;7.93;4.97;;;14.20;84.70;;;;;;5114434;28;20169;-74
2021/04/08 10:23:44;;;;;;;7.63;5.00;;;13.90;87.00;;;;;;5113205;28;20176;-73
2021/04/08 10:26:11;;;;;;;6.88;4.88;;;13.80;88.90;;;;;;5114062;28;20560;-73
2021/04/08 10:28:42;;;;;;;8.45;4.80;;;13.70;89.70;;;;;;5114032;28;20178;-74
2021/04/08 10:31:20;;;;;;;6.70;4.72;;;13.40;90.90;;;;;;5111232;28;21033;-77
2021/04/08 10:33:47;;;;;;;10.23;4.70;;;13.30;91.00;;;;;;5110708;28;20188;-74
2021/04/08 10:36:31;;;;;;;9.27;5.57;;;13.00;90.60;;;;;;5114057;28;20288;-76
2021/04/08 10:39:09;;;;;;;13.27;5.80;;;12.60;91.20;;;;;;5113785;28;20157;-77
2021/04/08 10:41:36;;;;;;;6.38;4.88;;;12.50;92.50;;;;;;5113781;28;20161;-76
2021/04/08 10:44:22;;;;;;;5.45;4.60;;;12.20;92.30;;;;;;5112733;28;20166;-76
2021/04/08 10:46:48;;;;;;;5.82;4.95;;;12.20;92.30;;;;;;5113855;28;20161;-76
2021/04/08 10:49:32;;;;;;;12.43;5.80;;;12.30;92.00;;;;;;5091684;28;20226;-76
2021/04/08 10:52:04;;;;;;;10.68;6.05;;;12.70;92.20;;;;;;5109286;28;20164;-77
2021/04/08 10:54:31;;;;;;;8.30;5.57;;;12.70;91.70;;;;;;5092844;28;20342;-76
2021/04/08 10:57:01;;;;;;;13.25;6.00;;;13.00;91.00;;;;;;5093666;28;20162;-76
2021/04/08 10:59:28;;;;;;;7.40;5.18;;;13.20;90.90;;;;;;5109160;28;20202;-76
2021/04/08 11:01:54;;;;;;;10.35;5.43;;;13.40;91.60;;;;;;5112389;28;20169;-76
2021/04/08 11:04:22;;;;;;;8.35;6.05;;;13.60;90.50;;;;;;5112748;28;20200;-76
2021/04/08 11:06:49;;;;;;;9.65;6.00;;;13.40;92.80;;;;;;5112702;28;20169;-76
2021/04/08 11:09:23;;;;;;;9.85;6.10;;;13.50;91.30;;;;;;5113865;28;20169;-74
2021/04/08 11:11:49;;;;;;;7.07;5.90;;;13.30;91.60;;;;;;5112296;28;20200;-76
2021/04/08 11:14:23;;;;;;;6.43;5.80;;;13.50;92.50;;;;;;5113615;28;20284;-76
2021/04/08 11:16:50;;;;;;;13.82;6.90;;;13.70;91.50;;;;;;5111877;28;20181;-76
2021/04/08 11:19:17;;;;;;;8.35;5.57;;;13.50;91.70;;;;;;5112502;28;20162;-76
2021/04/08 11:21:43;;;;;;;8.93;5.78;;;13.50;91.00;;;;;;5112418;28;20166;-76
2021/04/08 11:24:10;;;;;;;14.30;6.72;;;14.10;90.90;;;;;;5116626;28;20207;-76
2021/04/08 11:26:46;;;;;;;12.32;6.63;;;14.10;90.70;;;;;;5115731;28;20208;-76
2021/04/08 11:29:25;;;;;;;8.25;6.40;;;14.60;90.30;;;;;;5117694;28;20157;-76
2021/04/08 11:32:20;;;;;;;8.65;6.03;;;14.80;89.00;;;;;;5117474;28;20179;-77
2021/04/08 11:34:47;;;;;;;17.42;6.72;;;15.40;87.80;;;;;;5098875;28;20222;-74
2021/04/08 11:37:30;;;;;;;6.70;6.07;;;15.60;86.60;;;;;;5123714;27;20156;-74
2021/04/08 11:39:59;;;;;;;13.27;6.25;;;16.00;89.80;;;;;;5136933;27;20187;-74
2021/04/08 11:42:24;;;;;;;7.47;5.55;;;17.60;85.50;;;;;;5137801;27;20163;-73
2021/04/08 11:44:52;;;;;;;6.65;5.95;;;18.30;83.20;;;;;;5138025;27;20169;-74
2021/04/08 11:47:20;;;;;;;7.60;5.63;;;18.80;81.90;;;;;;5130910;27;20523;-76
2021/04/08 11:49:48;;;;;;;12.02;5.88;;;17.40;81.40;;;;;;5115654;28;20177;-76
2021/04/08 11:52:16;;;;;;;10.05;6.32;;;16.40;84.30;;;;;;5117365;28;20166;-73
2021/04/08 11:55:08;;;;;;;9.60;5.95;;;16.10;86.10;;;;;;5115995;28;20193;-74
2021/04/08 11:57:34;;;;;;;15.63;6.03;;;17.60;81.90;;;;;;5098695;28;20201;-73
2021/04/08 12:00:11;;;;;;;10.23;6.40;;;16.00;82.60;;;;;;5100675;27;20201;-74
2021/04/08 12:02:38;;;;;;;6.65;5.55;;;15.30;86.50;;;;;;5095339;28;20170;-74
2021/04/08 12:05:10;;;;;;;9.85;6.10;;;16.10;89.20;;;;;;5100208;28;20190;-74
2021/04/08 12:07:48;;;;;;;11.13;5.45;;;19.30;83.40;;;;;;5109097;28;20169;-77
2021/04/08 12:10:32;;;;;;;7.40;5.65;;;20.80;77.40;;;;;;5115562;28;20180;-76
2021/04/08 12:13:04;;;;;;;7.00;5.43;;;21.40;75.20;;;;;;5115712;28;20267;-76
2021/04/08 12:15:50;;;;;;;7.90;6.30;;;21.40;79.10;;;;;;5115442;28;20199;-77
2021/04/08 12:18:22;;;;;;;9.90;5.13;;;21.00;75.20;;;;;;5104812;27;20181;-76
2021/04/08 12:20:49;;;;;;;8.32;6.22;;;21.30;75.60;;;;;;5112883;28;20165;-76
2021/04/08 12:23:17;;;;;;;9.38;6.13;;;21.30;74.70;;;;;;5092018;27;20182;-76
2021/04/08 12:25:45;;;;;;;7.63;5.70;;;20.70;75.60;;;;;;5124816;27;20186;-76
2021/04/08 12:28:10;;;;;;;9.13;6.03;;;20.50;75.10;;;;;;5116703;28;20222;-76
2021/04/08 12:30:45;;;;;;;8.77;6.20;;;20.50;72.50;;;;;;5115560;28;20161;-76
2021/04/08 12:33:15;;;;;;;10.18;5.80;;;20.70;73.80;;;;;;5113398;28;20203;-76
2021/04/08 12:35:41;;;;;;;9.10;6.18;;;20.20;75.00;;;;;;5114831;28;20189;-74
2021/04/08 12:38:07;;;;;;;10.90;5.75;;;18.60;76.50;;;;;;5114825;28;20170;-74
2021/04/08 12:40:32;;;;;;;7.40;5.68;;;17.30;78.80;;;;;;5105156;28;20169;-75
2021/04/08 12:42:58;;;;;;;16.23;6.10;;;15.90;86.00;;;;;;5114710;28;20230;-74
2021/04/08 12:45:24;;;;;;;7.00;5.68;;;15.00;86.10;;;;;;5114241;28;20630;-74
2021/04/08 12:47:49;;;;;;;11.57;6.45;;;14.40;84.50;;;;;;5113395;28;20169;-73
2021/04/08 12:50:15;;;;;;;7.75;6.80;;;13.90;88.90;;;;;;5094772;28;20335;-74
2021/04/08 12:52:41;;;;;;;12.20;6.93;;;13.80;90.40;;;;;;5114967;28;20170;-74
2021/04/08 12:55:07;;;;;;;7.22;6.47;;;13.60;90.00;;;;;;5125851;27;20295;-73
2021/04/08 12:57:32;;;;;;;12.77;6.47;;;13.50;90.00;;;;;;5110756;28;20197;-74
2021/04/08 12:59:58;;;;;;;12.98;6.72;;;13.60;89.40;;;;;;5114911;28;20193;-74